Time;durP1;ratioP1;P1;durP2;ratioP2;P2;SDS_P1;SDS_P2;PMS_P1;PMS_P2;Temp;Humidity;BMP_temperature;BMP_pressure;BME280_temperature;BME280_humidity;BME280_pressure;Samples;Min_cycle;Max_cycle;Signal;HPM_P1;HPM_P2
2022/11/01 00:01:58;;;;;;;10.68;3.58;;;18.20;99.90;;;-144.05;49.56;125687.94;4995663;28;20037;-77
2022/11/01 00:04:25;;;;;;;7.85;3.28;;;18.10;99.90;;;-144.05;49.77;125687.94;4995684;28;20029;-77
2022/11/01 00:06:51;;;;;;;12.15;3.53;;;18.20;99.90;;;-144.05;49.55;125687.94;4995904;28;20057;-76
2022/11/01 00:09:17;;;;;;;14.00;3.75;;;18.30;99.90;;;-144.05;49.61;125687.94;5013065;28;20061;-77
2022/11/01 00:11:43;;;;;;;10.80;3.42;;;18.20;99.90;;;-144.05;49.30;125687.94;5013078;28;20385;-76
2022/11/01 00:14:15;;;;;;;9.75;3.30;;;18.20;99.90;;;-144.05;49.88;125687.94;5013350;28;20052;-77
2022/11/01 00:16:42;;;;;;;7.53;3.40;;;18.30;99.90;;;-144.05;50.01;125687.94;4995527;28;20077;-77
2022/11/01 00:19:08;;;;;;;9.00;3.58;;;18.30;99.90;;;-144.05;49.74;125687.94;5013504;28;20037;-76
2022/11/01 00:21:35;;;;;;;14.45;3.72;;;18.30;99.90;;;-144.05;50.03;125687.94;5012844;28;20486;-76
2022/11/01 00:24:01;;;;;;;9.68;2.90;;;18.30;99.90;;;-144.05;49.66;125687.94;4995305;28;20094;-75
2022/11/01 00:26:27;;;;;;;16.50;3.75;;;18.30;99.90;;;-144.05;49.88;125687.94;5013251;28;20026;-76
2022/11/01 00:28:53;;;;;;;17.77;3.67;;;18.30;99.90;;;-144.05;50.05;125687.94;5012745;28;20397;-74
2022/11/01 00:31:21;;;;;;;7.72;3.88;;;18.20;99.90;;;-144.05;50.56;125687.94;5013635;28;20543;-80
2022/11/01 00:33:47;;;;;;;10.32;3.25;;;18.20;99.90;;;-144.05;50.34;125687.94;5015091;28;20034;-78
2022/11/01 00:36:13;;;;;;;8.43;3.47;;;18.20;99.90;;;-144.05;50.50;125687.94;4997280;28;20103;-77
2022/11/01 00:38:39;;;;;;;8.43;3.60;;;18.20;99.90;;;-144.05;50.56;125687.94;5013677;28;20032;-79
2022/11/01 00:41:06;;;;;;;8.00;3.05;;;18.20;99.90;;;-144.05;51.12;125687.94;5013261;28;20026;-77
2022/11/01 00:43:35;;;;;;;11.40;3.60;;;18.20;99.90;;;-144.05;51.06;125687.94;5013357;28;20033;-76
2022/11/01 00:46:03;;;;;;;10.90;3.67;;;18.10;99.90;;;-144.05;51.42;125687.94;4995594;28;20042;-78
2022/11/01 00:48:29;;;;;;;8.98;3.30;;;18.00;99.90;;;-144.05;52.09;125687.94;5013356;28;20030;-76
2022/11/01 00:50:55;;;;;;;8.02;3.47;;;17.90;99.90;;;-144.05;52.56;125687.94;5013056;28;20388;-77
2022/11/01 00:53:21;;;;;;;8.55;3.25;;;17.90;99.90;;;-144.05;52.39;125687.94;5013271;28;20101;-77
2022/11/01 00:55:47;;;;;;;8.20;3.60;;;17.80;99.90;;;-144.05;52.80;125687.94;5012720;28;20424;-77
2022/11/01 00:58:13;;;;;;;10.18;3.83;;;17.70;99.90;;;-144.05;53.10;125687.94;5012481;28;20026;-77
2022/11/01 01:00:39;;;;;;;10.98;3.63;;;17.70;99.90;;;-144.05;53.16;125687.94;5012607;28;20033;-77
2022/11/01 01:03:06;;;;;;;13.07;3.70;;;17.70;99.90;;;-144.05;52.99;125687.94;5013208;28;20030;-76
2022/11/01 01:05:34;;;;;;;10.50;3.85;;;17.70;99.90;;;-144.05;54.33;125687.94;5012597;28;20112;-77
2022/11/01 01:08:01;;;;;;;10.30;2.80;;;17.70;99.90;;;-144.05;54.92;125687.94;4994657;28;20069;-78
2022/11/01 01:10:26;;;;;;;11.27;3.90;;;17.50;99.90;;;-144.05;56.97;125687.94;4995219;28;20144;-76
2022/11/01 01:12:53;;;;;;;8.65;3.33;;;17.30;99.90;;;-144.05;58.57;125687.94;5012599;28;20366;-75
2022/11/01 01:15:19;;;;;;;10.65;3.00;;;17.00;99.90;;;-144.05;59.38;125687.94;4995037;28;20493;-77
2022/11/01 01:17:44;;;;;;;7.53;3.33;;;16.90;99.90;;;-144.05;60.02;125687.94;5012673;28;20099;-76
2022/11/01 01:20:11;;;;;;;9.75;3.20;;;16.70;99.90;;;-144.05;60.12;125687.94;4995186;28;20084;-77
2022/11/01 01:22:37;;;;;;;8.32;3.00;;;16.70;99.90;;;-144.05;60.12;125687.94;5012414;28;20106;-76
2022/11/01 01:25:03;;;;;;;11.80;3.60;;;16.60;99.90;;;-144.05;60.70;125687.94;4995362;28;20112;-77
2022/11/01 01:27:29;;;;;;;10.70;3.45;;;16.60;99.90;;;-144.05;60.46;125687.94;5012322;28;20409;-77
2022/11/01 01:29:55;;;;;;;10.13;3.10;;;16.60;99.90;;;-144.05;60.46;125687.94;4994495;28;20172;-77
2022/11/01 01:32:23;;;;;;;6.38;3.55;;;16.60;99.90;;;-144.05;61.23;125687.94;5012283;28;20084;-76
2022/11/01 01:34:50;;;;;;;7.43;3.03;;;16.50;99.90;;;-144.05;61.14;125687.94;5012105;28;20025;-77
2022/11/01 01:37:16;;;;;;;7.68;3.90;;;16.50;99.90;;;-144.05;61.92;125687.94;5012260;28;20512;-75
2022/11/01 01:39:43;;;;;;;9.15;3.88;;;16.50;99.90;;;-144.05;60.92;125687.94;4994075;28;20037;-76
2022/11/01 01:42:33;;;;;;;9.23;3.75;;;16.50;99.90;;;-144.05;60.74;125687.94;4996688;28;20461;-77
2022/11/01 01:44:59;;;;;;;7.10;3.28;;;16.50;99.90;;;-144.05;61.14;125687.94;5015960;28;20037;-76
2022/11/01 01:47:43;;;;;;;9.65;3.53;;;16.50;99.90;;;-144.05;60.86;125687.94;5015660;28;20034;-77
2022/11/01 01:50:58;;;;;;;9.00;3.38;;;16.50;99.90;;;-144.05;60.59;125687.94;5016132;28;20064;-76
2022/11/01 01:53:42;;;;;;;10.80;3.75;;;16.50;99.90;;;-144.05;60.54;125687.94;5016227;28;20446;-80
2022/11/01 01:56:25;;;;;;;11.75;3.47;;;16.50;99.90;;;-144.05;60.88;125687.94;4999724;28;20167;-80
2022/11/01 01:59:02;;;;;;;8.55;3.75;;;16.50;99.90;;;-144.05;61.15;125687.94;5016838;28;20080;-78
2022/11/01 02:01:29;;;;;;;11.52;3.72;;;16.50;99.90;;;-144.05;61.92;125687.94;5016606;28;20428;-78
2022/11/01 02:03:55;;;;;;;11.00;4.40;;;16.50;99.90;;;-144.05;61.83;125687.94;4998763;28;20092;-78
2022/11/01 02:06:25;;;;;;;11.18;4.00;;;16.50;99.90;;;-144.05;61.77;125687.94;5015987;28;20478;-79
2022/11/01 02:08:59;;;;;;;8.73;3.55;;;16.50;99.90;;;-144.05;62.18;125687.94;4998191;28;20033;-77
2022/11/01 02:11:29;;;;;;;11.25;4.35;;;16.40;99.90;;;-144.05;62.18;125687.94;5015851;28;20030;-78
2022/11/01 02:13:57;;;;;;;12.23;4.13;;;16.50;99.90;;;-144.05;61.83;125687.94;5015763;28;20030;-77
2022/11/01 02:16:46;;;;;;;11.15;4.13;;;16.50;99.90;;;-144.05;62.01;125687.94;4997931;28;20030;-77
2022/11/01 02:19:52;;;;;;;8.73;4.18;;;16.50;99.90;;;-144.05;61.99;125687.94;4997467;28;20037;-76
2022/11/01 02:23:34;;;;;;;11.05;4.00;;;16.50;99.90;;;-144.05;61.92;125687.94;4997635;28;20034;-77
2022/11/01 02:27:05;;;;;;;9.88;4.10;;;16.60;99.90;;;-144.05;61.64;125687.94;4997822;28;20029;-77
2022/11/01 02:30:34;;;;;;;6.07;3.83;;;16.60;99.90;;;-144.05;61.56;125687.94;5009676;28;20049;-76
2022/11/01 02:33:29;;;;;;;8.60;3.72;;;16.60;99.90;;;-144.05;61.38;125687.94;5014723;28;20029;-76
2022/11/01 02:36:06;;;;;;;9.32;3.20;;;16.60;99.90;;;-144.05;61.24;125687.94;4997215;28;20470;-78
2022/11/01 02:38:57;;;;;;;9.52;3.50;;;16.60;99.90;;;-144.05;61.40;125687.94;5014780;28;20026;-76
2022/11/01 02:41:38;;;;;;;13.65;4.10;;;16.60;99.90;;;-144.05;60.84;125687.94;4997396;28;20018;-77
2022/11/01 02:44:16;;;;;;;10.85;4.07;;;16.70;99.90;;;-144.05;60.73;125687.94;5014233;28;20109;-76
2022/11/01 02:47:01;;;;;;;6.43;3.60;;;16.70;99.90;;;-144.05;60.01;125687.94;5014041;28;20026;-76
2022/11/01 02:49:40;;;;;;;9.82;3.95;;;16.70;99.90;;;-144.05;60.54;125687.94;5014311;28;20117;-77
2022/11/01 02:52:14;;;;;;;8.65;3.95;;;16.60;99.90;;;-144.05;60.52;125687.94;4996122;28;20030;-76
2022/11/01 02:54:52;;;;;;;9.55;3.53;;;16.60;99.90;;;-144.05;60.39;125687.94;5014506;28;20033;-76
2022/11/01 02:57:40;;;;;;;9.40;3.30;;;16.60;99.90;;;-144.05;60.85;125687.94;4996768;28;20536;-77
2022/11/01 03:00:31;;;;;;;11.40;3.20;;;16.60;99.90;;;-144.05;61.15;125687.94;4996968;28;20128;-77
2022/11/01 03:03:26;;;;;;;8.93;3.65;;;16.60;99.90;;;-144.05;61.02;125687.94;4996700;28;20048;-79
2022/11/01 03:06:04;;;;;;;10.43;3.40;;;16.60;99.90;;;-144.05;60.78;125687.94;5014054;28;20038;-75
2022/11/01 03:08:58;;;;;;;8.13;3.45;;;16.60;99.90;;;-144.05;60.68;125687.94;5013940;28;20022;-77
2022/11/01 03:12:03;;;;;;;8.40;3.97;;;16.60;99.90;;;-144.05;60.97;125687.94;4996342;28;20076;-76
2022/11/01 03:14:55;;;;;;;9.65;3.20;;;16.70;99.90;;;-144.05;60.78;125687.94;5007347;28;20086;-76
2022/11/01 03:18:04;;;;;;;8.13;3.05;;;16.80;99.90;;;-144.05;60.82;125687.94;5014626;28;20393;-78
2022/11/01 03:20:46;;;;;;;7.95;3.15;;;16.80;99.90;;;-144.05;60.91;125687.94;4996773;28;20036;-78
2022/11/01 03:23:48;;;;;;;7.72;3.15;;;16.80;99.90;;;-144.05;61.01;125687.94;4996402;28;20030;-79
2022/11/01 03:26:24;;;;;;;8.20;3.10;;;16.80;99.90;;;-144.05;61.33;125687.94;5014042;28;20057;-77
2022/11/01 03:29:01;;;;;;;6.28;3.13;;;16.80;99.90;;;-144.05;61.14;125687.94;5013758;28;20022;-80
2022/11/01 03:31:38;;;;;;;12.00;3.28;;;16.80;99.90;;;-144.05;61.67;125687.94;5013868;28;20021;-78
2022/11/01 03:34:17;;;;;;;8.38;3.85;;;16.80;99.90;;;-144.05;61.70;125687.94;5013556;28;20704;-79
2022/11/01 03:36:53;;;;;;;8.95;3.03;;;16.70;99.90;;;-144.05;61.91;125687.94;5013270;28;20034;-77
2022/11/01 03:39:28;;;;;;;9.60;3.40;;;16.70;99.90;;;-144.05;62.16;125687.94;4995631;28;20466;-76
2022/11/01 03:42:06;;;;;;;7.43;3.50;;;16.70;99.90;;;-144.05;62.67;125687.94;4995616;28;20029;-75
2022/11/01 03:44:48;;;;;;;8.88;3.50;;;16.70;99.90;;;-144.05;62.33;125687.94;5013113;28;20485;-77
2022/11/01 03:47:14;;;;;;;8.38;3.03;;;16.70;99.90;;;-144.05;62.69;125687.94;5013000;28;20034;-78
2022/11/01 03:49:40;;;;;;;9.63;3.47;;;16.70;99.90;;;-144.05;62.25;125687.94;5013120;28;20457;-76
2022/11/01 03:52:07;;;;;;;7.40;3.10;;;16.70;99.90;;;-144.05;61.95;125687.94;5013188;28;20057;-77
2022/11/01 03:54:33;;;;;;;8.35;3.45;;;16.70;99.90;;;-144.05;62.27;125687.94;5014199;28;20034;-77
2022/11/01 03:56:59;;;;;;;9.50;3.72;;;16.70;99.90;;;-144.05;61.96;125687.94;5013837;28;20034;-79
2022/11/01 03:59:25;;;;;;;7.30;3.20;;;16.80;99.90;;;-144.05;62.26;125687.94;5013813;28;20029;-77
2022/11/01 04:01:51;;;;;;;10.07;4.18;;;16.80;99.90;;;-144.05;62.40;125687.94;5014097;28;20029;-78
2022/11/01 04:04:17;;;;;;;10.55;4.13;;;16.70;99.90;;;-144.05;62.94;125687.94;4994812;28;20022;-77
2022/11/01 04:06:43;;;;;;;8.07;3.10;;;16.70;99.90;;;-144.05;62.90;125687.94;5013196;28;20042;-78
2022/11/01 04:09:09;;;;;;;6.97;3.08;;;16.70;99.90;;;-144.05;63.14;125687.94;4995357;28;20033;-76
2022/11/01 04:11:35;;;;;;;7.20;3.55;;;16.70;99.90;;;-144.05;63.58;125687.94;5014064;28;20481;-78
2022/11/01 04:22:15;;;;;;;6.88;3.30;;;16.60;99.90;;;-144.05;63.85;125687.94;5012649;28;20132;-75
2022/11/01 04:24:40;;;;;;;10.98;3.70;;;16.60;99.90;;;-144.05;63.36;125687.94;4994878;28;20065;-77
2022/11/01 04:27:06;;;;;;;9.68;2.95;;;16.60;99.90;;;-144.05;63.64;125687.94;4995730;28;20175;-77
2022/11/01 04:29:32;;;;;;;8.02;3.40;;;16.60;99.90;;;-144.05;63.04;125687.94;5011755;28;20029;-76
2022/11/01 04:31:58;;;;;;;4.85;2.80;;;16.60;99.90;;;-144.05;63.26;125687.94;5011714;28;20145;-77
2022/11/01 04:34:42;;;;;;;8.95;2.83;;;16.60;99.90;;;-144.05;63.69;125687.94;5011686;28;20116;-77
2022/11/01 04:37:09;;;;;;;7.90;3.20;;;16.60;99.90;;;-144.05;63.80;125687.94;5011877;28;20488;-77
2022/11/01 04:39:35;;;;;;;8.38;3.35;;;16.60;99.90;;;-144.05;64.36;125687.94;4994509;28;20409;-75
2022/11/01 04:42:01;;;;;;;6.47;2.78;;;16.60;99.90;;;-144.05;64.21;125687.94;4994155;28;20096;-76
2022/11/01 04:44:27;;;;;;;8.00;2.75;;;16.70;99.90;;;-144.05;63.56;125687.94;5011816;28;20509;-77
2022/11/01 04:46:53;;;;;;;8.05;3.15;;;16.70;99.90;;;-144.05;63.69;125687.94;5011464;28;20392;-76
2022/11/01 04:49:19;;;;;;;6.93;3.55;;;16.60;99.90;;;-144.05;63.67;125687.94;5012052;28;20034;-77
2022/11/01 04:51:45;;;;;;;6.70;3.40;;;16.70;99.90;;;-144.05;64.13;125687.94;5012403;28;20034;-77
2022/11/01 04:54:10;;;;;;;10.65;3.35;;;16.70;99.90;;;-144.05;64.26;125687.94;5012064;28;20061;-77
2022/11/01 04:56:36;;;;;;;8.60;3.60;;;16.70;99.90;;;-144.05;64.28;125687.94;5012035;28;20084;-77
2022/11/01 04:59:02;;;;;;;7.60;3.10;;;16.60;99.90;;;-144.05;64.30;125687.94;4994348;28;20568;-76
2022/11/01 05:01:28;;;;;;;9.32;3.25;;;16.60;99.90;;;-144.05;64.00;125687.94;4993967;28;20065;-77
2022/11/01 05:03:54;;;;;;;8.55;3.47;;;16.60;99.90;;;-144.05;64.48;125687.94;5012582;28;20172;-77
2022/11/01 05:06:20;;;;;;;9.40;3.90;;;16.50;99.90;;;-144.05;65.01;125687.94;5012516;28;20045;-77
2022/11/01 05:08:46;;;;;;;7.32;3.42;;;16.60;99.90;;;-144.05;65.17;125687.94;4994595;28;20033;-77
2022/11/01 05:11:12;;;;;;;8.68;3.42;;;16.50;99.90;;;-144.05;65.45;125687.94;4995024;28;20079;-76
2022/11/01 05:13:38;;;;;;;9.93;3.10;;;16.50;99.90;;;-144.05;64.84;125687.94;5012968;28;20112;-76
2022/11/01 05:16:04;;;;;;;7.88;3.05;;;16.50;99.90;;;-144.05;65.00;125687.94;5011669;28;20123;-75
2022/11/01 05:18:30;;;;;;;6.50;3.30;;;16.50;99.90;;;-144.05;65.16;125687.94;5012661;28;20034;-78
2022/11/01 05:20:56;;;;;;;6.10;3.22;;;16.40;99.90;;;-144.05;64.76;125687.94;5012521;28;20593;-77
2022/11/01 05:23:22;;;;;;;11.50;3.80;;;16.40;99.90;;;-144.05;66.25;125687.94;5012847;28;20030;-76
2022/11/01 05:25:48;;;;;;;7.03;3.33;;;16.40;99.90;;;-144.05;65.43;125687.94;5012396;28;20049;-76
2022/11/01 05:28:14;;;;;;;7.25;3.30;;;16.40;99.90;;;-144.05;65.81;125687.94;5012250;28;20033;-78
2022/11/01 05:30:42;;;;;;;6.63;2.90;;;16.40;99.90;;;-144.05;65.57;125687.94;4994370;28;20034;-77
2022/11/01 05:33:10;;;;;;;6.43;3.17;;;16.40;99.90;;;-144.05;66.03;125687.94;5012196;28;20033;-78
2022/11/01 05:35:36;;;;;;;5.10;2.80;;;16.30;99.90;;;-144.05;65.99;125687.94;4993679;28;20030;-76
2022/11/01 05:38:04;;;;;;;6.90;3.30;;;16.30;99.90;;;-144.05;66.58;125687.94;4993211;28;20137;-75
2022/11/01 05:40:32;;;;;;;8.88;3.67;;;16.40;99.90;;;-144.05;66.74;125687.94;4993197;28;20080;-75
2022/11/01 05:42:58;;;;;;;8.98;3.55;;;16.30;99.90;;;-144.05;66.50;125687.94;4993611;28;20037;-77
2022/11/01 05:45:24;;;;;;;8.85;3.00;;;16.30;99.90;;;-144.05;66.91;125687.94;4993763;28;20030;-76
2022/11/01 05:47:50;;;;;;;8.55;3.47;;;16.30;99.90;;;-144.05;66.92;125687.94;5011058;28;20456;-78
2022/11/01 05:50:16;;;;;;;4.38;2.88;;;16.30;99.90;;;-144.05;67.00;125687.94;5011328;28;20036;-79
2022/11/01 05:52:42;;;;;;;4.60;2.63;;;16.30;99.90;;;-144.05;67.05;125687.94;5011345;28;20026;-77
2022/11/01 05:55:09;;;;;;;8.57;3.10;;;16.30;99.90;;;-144.05;67.43;125687.94;5011913;28;20026;-77
2022/11/01 05:57:35;;;;;;;7.07;3.38;;;16.20;99.90;;;-144.05;67.32;125687.94;5010968;28;20033;-77
2022/11/01 06:00:03;;;;;;;9.07;3.63;;;16.20;99.90;;;-144.05;67.56;125687.94;5010768;28;20030;-77
2022/11/01 06:02:32;;;;;;;7.60;3.63;;;16.20;99.90;;;-144.05;67.50;125687.94;5011184;28;20030;-78
2022/11/01 06:04:59;;;;;;;7.95;3.50;;;16.20;99.90;;;-144.05;68.02;125687.94;5011168;28;20495;-77
2022/11/01 06:07:25;;;;;;;7.55;3.22;;;16.10;99.90;;;-144.05;67.86;125687.94;5011775;28;20032;-78
2022/11/01 06:09:52;;;;;;;9.63;3.50;;;16.10;99.90;;;-144.05;67.97;125687.94;5011082;28;20026;-76
2022/11/01 06:12:17;;;;;;;7.95;3.22;;;16.10;99.90;;;-144.05;67.89;125687.94;5011454;28;20029;-77
2022/11/01 06:14:43;;;;;;;7.47;3.55;;;16.10;99.90;;;-144.05;67.74;125687.94;5011785;28;20098;-78
2022/11/01 06:17:12;;;;;;;7.82;3.47;;;16.10;99.90;;;-144.05;67.98;125687.94;5011920;28;20062;-76
2022/11/01 06:19:38;;;;;;;7.72;3.15;;;16.10;99.90;;;-144.05;67.97;125687.94;5012766;28;20485;-75
2022/11/01 06:22:04;;;;;;;7.70;3.38;;;16.10;99.90;;;-144.05;67.86;125687.94;4994381;28;20482;-77
2022/11/01 06:24:30;;;;;;;6.30;3.38;;;16.10;99.90;;;-144.05;67.88;125687.94;5011793;28;20032;-77
2022/11/01 06:26:56;;;;;;;7.45;3.47;;;16.10;99.90;;;-144.05;67.58;125687.94;4994131;28;20382;-77
2022/11/01 06:29:22;;;;;;;10.23;3.13;;;16.10;99.90;;;-144.05;68.00;125687.94;4997926;28;20037;-75
2022/11/01 06:31:48;;;;;;;6.95;2.90;;;16.10;99.90;;;-144.05;67.05;125687.94;5015284;28;20495;-76
2022/11/01 06:34:14;;;;;;;8.48;2.80;;;16.10;99.90;;;-144.05;66.34;125687.94;5015015;28;20501;-79
2022/11/01 06:36:42;;;;;;;7.40;3.40;;;16.10;99.90;;;-144.05;66.31;125687.94;4998055;28;20037;-78
2022/11/01 06:39:09;;;;;;;8.27;2.70;;;16.20;99.90;;;-144.05;66.36;125687.94;5016315;28;20026;-78
2022/11/01 06:41:35;;;;;;;4.63;2.80;;;16.20;99.90;;;-144.05;66.19;125687.94;5015734;28;20026;-77
2022/11/01 06:44:01;;;;;;;8.95;3.08;;;16.20;99.90;;;-144.05;65.77;125687.94;5014327;28;20053;-77
2022/11/01 06:46:27;;;;;;;6.82;2.78;;;16.30;99.90;;;-144.05;65.46;125687.94;5015818;28;20026;-76
2022/11/01 06:48:52;;;;;;;8.52;2.78;;;16.20;99.90;;;-144.05;65.34;125687.94;5015069;28;20038;-75
2022/11/01 06:51:18;;;;;;;8.32;2.72;;;16.30;99.90;;;-144.05;65.48;125687.94;5015738;28;20045;-75
2022/11/01 06:53:44;;;;;;;7.60;2.55;;;16.20;99.90;;;-144.05;64.80;125687.94;5015505;28;20036;-78
2022/11/01 06:56:10;;;;;;;5.32;2.38;;;16.20;99.90;;;-144.05;64.17;125687.94;5015575;28;20169;-77
2022/11/01 06:58:36;;;;;;;5.00;3.08;;;16.20;99.90;;;-144.05;64.50;125687.94;5014995;28;20025;-78
2022/11/01 07:01:02;;;;;;;7.05;2.80;;;16.30;99.90;;;-144.05;64.03;125687.94;4997071;28;20037;-75
2022/11/01 07:03:28;;;;;;;5.72;2.60;;;16.30;99.90;;;-144.05;63.32;125687.94;5014458;28;20429;-78
2022/11/01 07:05:53;;;;;;;7.03;2.15;;;16.30;99.90;;;-144.05;62.36;125687.94;5014565;28;20022;-77
2022/11/01 07:08:19;;;;;;;4.28;2.22;;;16.30;99.90;;;-144.05;61.72;125687.94;5014822;28;20112;-77
2022/11/01 07:10:50;;;;;;;9.57;2.25;;;16.30;99.90;;;-144.05;60.96;125687.94;5014538;28;20477;-77
2022/11/01 07:13:16;;;;;;;5.95;1.80;;;16.30;99.90;;;-144.05;59.62;125687.94;5014678;28;20037;-76
2022/11/01 07:15:42;;;;;;;4.22;1.80;;;16.30;99.90;;;-144.05;59.71;125687.94;5014604;28;20038;-76
2022/11/01 07:18:09;;;;;;;4.53;2.03;;;16.20;99.90;;;-144.05;59.21;125687.94;4996378;28;20034;-76
2022/11/01 07:20:40;;;;;;;6.18;1.65;;;16.20;99.90;;;-144.05;58.71;125687.94;5014816;28;20053;-78
2022/11/01 07:23:15;;;;;;;5.57;1.73;;;16.10;99.90;;;-144.05;58.01;125687.94;5015367;28;20025;-78
2022/11/01 07:25:42;;;;;;;7.07;1.30;;;16.10;99.90;;;-144.05;56.79;125687.94;5015029;28;20021;-77
2022/11/01 07:28:09;;;;;;;3.63;1.60;;;16.00;99.90;;;-144.05;56.86;125687.94;5015311;28;20052;-77
2022/11/01 07:30:35;;;;;;;3.72;1.00;;;15.90;99.90;;;-144.05;56.40;125687.94;5015002;28;20026;-78
2022/11/01 07:33:04;;;;;;;3.85;1.40;;;15.70;99.90;;;-144.05;55.67;125687.94;5015537;28;20110;-78
2022/11/01 07:35:30;;;;;;;2.97;1.00;;;15.60;99.90;;;-144.05;55.41;125687.94;5015647;28;20213;-78
2022/11/01 07:37:59;;;;;;;3.10;1.02;;;15.40;99.90;;;-144.05;55.28;125687.94;5015347;28;20040;-78
2022/11/01 07:40:27;;;;;;;2.35;0.80;;;15.30;99.90;;;-144.05;55.41;125687.94;5014616;28;20022;-80
2022/11/01 07:42:59;;;;;;;4.90;0.82;;;15.20;99.90;;;-144.05;54.91;125687.94;5015980;28;20037;-79
2022/11/01 07:45:32;;;;;;;7.80;1.30;;;15.20;99.90;;;-144.05;55.21;125687.94;5007738;28;20061;-79
2022/11/01 07:48:13;;;;;;;2.75;0.90;;;15.10;99.90;;;-144.05;55.16;125687.94;5031328;28;20160;-74
2022/11/01 07:50:41;;;;;;;2.72;0.80;;;15.00;99.90;;;-144.05;55.07;125687.94;5031723;28;20087;-78
2022/11/01 07:53:18;;;;;;;3.15;0.90;;;15.00;99.90;;;-144.05;54.56;125687.94;5014183;28;20037;-80
2022/11/01 07:55:45;;;;;;;5.20;1.25;;;14.90;99.90;;;-144.05;54.24;125687.94;5029184;28;20115;-79
2022/11/01 07:58:13;;;;;;;1.83;0.90;;;15.00;99.90;;;-144.05;54.04;125687.94;5020479;28;20091;-77
2022/11/01 08:00:42;;;;;;;3.35;0.82;;;15.10;99.90;;;-144.05;53.79;125687.94;5014067;28;20037;-75
2022/11/01 08:03:16;;;;;;;3.00;0.95;;;15.20;99.90;;;-144.05;53.57;125687.94;4996080;28;20461;-76
2022/11/01 08:05:44;;;;;;;4.55;1.13;;;15.20;99.90;;;-144.05;53.20;125687.94;4996372;28;20029;-77
2022/11/01 08:08:12;;;;;;;2.65;0.65;;;15.20;99.90;;;-144.05;53.56;125687.94;4996361;28;20029;-75
2022/11/01 08:10:39;;;;;;;4.45;1.10;;;15.30;99.90;;;-144.05;53.19;125687.94;5014056;28;20065;-76
2022/11/01 08:13:18;;;;;;;3.10;0.90;;;15.40;99.90;;;-144.05;52.36;125687.94;5013774;28;20033;-77
2022/11/01 08:15:47;;;;;;;4.15;0.57;;;15.60;99.90;;;-144.05;51.98;125687.94;5014021;28;20030;-77
2022/11/01 08:18:14;;;;;;;3.08;0.57;;;15.80;99.90;;;-144.05;51.27;125687.94;5012863;28;20034;-77
2022/11/01 08:20:40;;;;;;;1.33;0.50;;;16.10;99.90;;;-144.05;49.93;125687.94;5013432;28;20033;-76
2022/11/01 08:23:07;;;;;;;3.28;0.60;;;16.40;99.90;;;-144.05;50.29;125687.94;5013398;28;20025;-77
2022/11/01 08:25:34;;;;;;;4.18;0.93;;;16.40;99.90;;;-144.05;50.15;125687.94;4995670;28;20053;-76
2022/11/01 08:28:04;;;;;;;2.38;0.73;;;16.60;99.90;;;-144.05;49.43;125687.94;5013292;28;20034;-76
2022/11/01 08:30:30;;;;;;;2.47;0.60;;;16.80;99.90;;;-144.05;49.68;125687.94;5013190;28;20025;-75
2022/11/01 08:33:02;;;;;;;2.60;0.90;;;16.80;99.90;;;-144.05;49.84;125687.94;4995853;28;20489;-78
2022/11/01 08:35:32;;;;;;;3.22;0.75;;;16.70;99.90;;;-144.05;49.71;125687.94;5014454;28;20038;-76
2022/11/01 08:37:58;;;;;;;2.47;0.95;;;16.90;99.90;;;-144.05;49.28;125687.94;5014925;28;20069;-75
2022/11/01 08:40:25;;;;;;;5.22;0.70;;;16.80;99.90;;;-144.05;49.30;125687.94;5014834;28;20042;-77
2022/11/01 08:42:51;;;;;;;5.18;1.00;;;17.00;99.90;;;-144.05;49.01;125687.94;4997186;28;20026;-78
2022/11/01 08:45:17;;;;;;;2.15;0.70;;;17.00;99.90;;;-144.05;48.66;125687.94;5014658;28;20109;-76
2022/11/01 08:47:43;;;;;;;4.93;1.00;;;17.10;99.90;;;-144.05;48.32;125687.94;5014143;28;20117;-76
2022/11/01 08:50:14;;;;;;;7.82;1.38;;;17.00;99.90;;;-144.05;48.95;125687.94;5013986;28;20557;-77
2022/11/01 08:52:41;;;;;;;2.55;0.63;;;16.90;99.90;;;-144.05;49.21;125687.94;5013553;28;20142;-76
2022/11/01 08:55:09;;;;;;;3.75;1.15;;;16.90;99.90;;;-144.05;48.69;125687.94;5013804;28;20037;-76
2022/11/01 08:57:36;;;;;;;3.65;1.30;;;16.80;99.90;;;-144.05;49.25;125687.94;5013706;28;20034;-76
2022/11/01 09:00:09;;;;;;;1.25;0.43;;;16.60;99.90;;;-144.05;48.37;125687.94;5014823;28;20076;-76
2022/11/01 09:02:35;;;;;;;3.60;0.80;;;16.70;99.90;;;-144.05;48.02;125687.94;5014332;28;20026;-77
2022/11/01 09:05:04;;;;;;;2.60;0.82;;;16.80;99.90;;;-144.05;48.19;125687.94;5015262;28;20030;-76
2022/11/01 09:07:30;;;;;;;4.90;1.10;;;16.90;99.90;;;-144.05;47.60;125687.94;5014039;28;20026;-76
2022/11/01 09:09:56;;;;;;;3.17;0.85;;;16.90;99.90;;;-144.05;47.84;125687.94;5013260;28;20546;-75
2022/11/01 09:12:22;;;;;;;6.00;1.00;;;16.90;99.90;;;-144.05;47.53;125687.94;4996419;28;20033;-78
2022/11/01 09:14:47;;;;;;;3.35;1.20;;;17.00;99.90;;;-144.05;46.81;125687.94;4995570;28;20034;-77
2022/11/01 09:17:14;;;;;;;5.18;1.30;;;17.00;99.90;;;-144.05;46.03;125687.94;5013061;28;20060;-79
2022/11/01 09:19:40;;;;;;;6.00;1.10;;;17.00;99.90;;;-144.05;45.57;125687.94;5013060;28;20018;-76
2022/11/01 09:22:07;;;;;;;10.70;1.48;;;17.10;99.90;;;-144.05;44.88;125687.94;5013657;28;20485;-78
2022/11/01 09:24:34;;;;;;;5.90;2.00;;;17.10;99.90;;;-144.05;44.82;125687.94;5013068;28;20378;-79
2022/11/01 09:27:01;;;;;;;9.00;1.42;;;17.20;99.90;;;-144.05;43.89;125687.94;4996196;28;20465;-77
2022/11/01 09:29:26;;;;;;;8.80;1.60;;;17.20;99.90;;;-144.05;43.62;125687.94;5013374;28;20336;-78
2022/11/01 09:31:53;;;;;;;5.85;1.70;;;17.20;99.90;;;-144.05;43.41;125687.94;5012964;28;20030;-76
2022/11/01 09:34:20;;;;;;;5.45;1.70;;;17.10;99.90;;;-144.05;43.93;125687.94;4995281;28;20065;-76
2022/11/01 09:36:47;;;;;;;11.38;2.03;;;16.90;99.90;;;-144.05;43.04;125687.94;5012634;28;20041;-77
2022/11/01 09:39:16;;;;;;;8.35;1.48;;;16.90;99.90;;;-144.05;43.38;125687.94;5013129;28;20520;-75
2022/11/01 09:41:50;;;;;;;13.30;2.13;;;17.00;99.90;;;-144.05;42.67;125687.94;5013528;28;20050;-76
2022/11/01 09:44:30;;;;;;;10.07;1.60;;;17.10;99.90;;;-144.05;41.76;125687.94;5013117;28;20366;-76
2022/11/01 09:47:11;;;;;;;11.70;1.98;;;17.10;99.90;;;-144.05;41.96;125687.94;5013331;28;20118;-77
2022/11/01 09:49:45;;;;;;;9.77;2.35;;;17.00;99.90;;;-144.05;41.62;125687.94;4997238;28;20045;-75
2022/11/01 09:52:23;;;;;;;9.52;1.88;;;17.00;99.90;;;-144.05;41.59;125687.94;5014656;28;20037;-77
2022/11/01 09:54:50;;;;;;;9.93;2.10;;;17.10;99.90;;;-144.05;40.91;125687.94;4996133;28;20469;-76
2022/11/01 09:57:44;;;;;;;7.55;1.88;;;17.30;99.90;;;-144.05;40.75;125687.94;5014404;28;20034;-77
2022/11/01 10:00:20;;;;;;;8.70;1.98;;;17.20;99.90;;;-144.05;40.91;125687.94;5014000;28;20093;-78
2022/11/01 10:03:21;;;;;;;7.80;1.80;;;17.20;99.90;;;-144.05;41.51;125687.94;4997887;28;20099;-77
2022/11/01 10:06:14;;;;;;;12.13;2.08;;;17.20;99.90;;;-144.05;41.46;125687.94;4999552;28;20029;-76
2022/11/01 10:09:20;;;;;;;7.68;2.05;;;17.10;99.90;;;-144.05;40.86;125687.94;5015969;28;20029;-75
2022/11/01 10:12:39;;;;;;;11.43;2.10;;;17.20;99.90;;;-144.05;41.44;125687.94;5016323;28;20113;-76
2022/11/01 10:15:54;;;;;;;9.57;1.90;;;17.10;99.90;;;-144.05;40.91;125687.94;5013499;28;20045;-77
2022/11/01 10:18:28;;;;;;;9.15;1.95;;;17.30;99.90;;;-144.05;41.00;125687.94;5016656;28;20034;-76
2022/11/01 10:21:10;;;;;;;8.00;1.73;;;17.40;99.90;;;-144.05;40.95;125687.94;5016899;28;20026;-78
2022/11/01 10:23:49;;;;;;;7.40;1.77;;;17.50;99.90;;;-144.05;40.46;125687.94;5016333;28;20045;-75
2022/11/01 10:26:28;;;;;;;11.40;2.13;;;17.70;99.90;;;-144.05;40.36;125687.94;5016650;28;20046;-76